createdAt,value
2023-04-08T00:00:51.982Z,4.10
2023-04-08T00:02:58.207Z,4.00
2023-04-08T00:05:03.633Z,4.00
2023-04-08T00:07:08.788Z,4.20
2023-04-08T00:09:13.829Z,4.10
2023-04-08T00:11:21.543Z,4.20
2023-04-08T00:13:29.115Z,4.10
2023-04-08T00:15:34.284Z,4.00
2023-04-08T00:17:39.345Z,4.10
2023-04-08T00:19:44.770Z,4.20
2023-04-08T00:21:50.207Z,4.30
2023-04-08T00:23:55.686Z,4.30
2023-04-08T00:26:04.693Z,4.30
2023-04-08T00:28:12.296Z,4.20
2023-04-08T00:30:18.081Z,3.90
2023-04-08T00:32:24.100Z,4.10
2023-04-08T00:34:31.030Z,4.10
2023-04-08T00:36:36.396Z,3.90
2023-04-08T00:38:41.424Z,4.10
2023-04-08T00:40:46.741Z,4.10
2023-04-08T00:42:51.799Z,4.00
2023-04-08T00:44:59.749Z,3.90
2023-04-08T00:47:06.557Z,3.80
2023-04-08T00:49:12.578Z,3.90
2023-04-08T00:51:18.093Z,4.00
2023-04-08T00:53:25.277Z,4.10
2023-04-08T00:55:30.945Z,3.90
2023-04-08T00:57:37.002Z,3.90
2023-04-08T00:59:42.721Z,3.90
2023-04-08T01:01:58.624Z,4.10
2023-04-08T01:04:13.224Z,3.70
2023-04-08T01:06:28.522Z,3.80
2023-04-08T01:08:35.799Z,3.70
2023-04-08T01:10:45.802Z,3.70
2023-04-08T01:12:57.013Z,3.70
2023-04-08T01:15:08.646Z,3.90
2023-04-08T01:17:20.761Z,4.00
2023-04-08T01:19:33.689Z,4.00
2023-04-08T01:21:40.714Z,4.10
2023-04-08T01:24:04.253Z,4.20
2023-04-08T01:26:15.219Z,4.20
2023-04-08T01:28:22.094Z,4.20
2023-04-08T01:30:33.247Z,4.10
2023-04-08T01:32:39.551Z,4.10
2023-04-08T01:34:45.930Z,4.10
2023-04-08T01:36:52.469Z,3.80
2023-04-08T01:38:57.828Z,3.70
2023-04-08T01:41:03.366Z,3.90
2023-04-08T01:43:13.506Z,3.80
2023-04-08T01:45:19.757Z,3.70
2023-04-08T01:47:25.599Z,3.90
2023-04-08T01:49:31.753Z,3.90
2023-04-08T01:51:41.595Z,4.00
2023-04-08T01:53:47.023Z,4.00
2023-04-08T01:56:00.132Z,4.00
2023-04-08T01:58:08.158Z,4.10
2023-04-08T02:00:21.435Z,4.00
2023-04-08T02:02:29.167Z,4.00
2023-04-08T02:04:34.499Z,3.70
2023-04-08T02:06:41.628Z,3.70
2023-04-08T02:08:46.938Z,3.90
2023-04-08T02:10:52.040Z,3.80
2023-04-08T02:12:58.124Z,3.80
2023-04-08T02:15:04.465Z,3.90
2023-04-08T02:17:15.698Z,3.90
2023-04-08T02:19:28.708Z,3.70
2023-04-08T02:21:41.043Z,3.70
2023-04-08T02:23:51.585Z,3.80
2023-04-08T02:25:59.820Z,3.80
2023-04-08T02:28:07.579Z,3.80
2023-04-08T02:30:15.902Z,3.60
2023-04-08T02:32:26.647Z,3.40
2023-04-08T02:34:34.572Z,3.20
2023-04-08T02:36:41.575Z,3.40
2023-04-08T02:38:51.742Z,3.40
2023-04-08T02:40:58.225Z,3.50
2023-04-08T02:43:03.649Z,3.70
2023-04-08T02:45:11.507Z,3.60
2023-04-08T02:47:17.487Z,3.30
2023-04-08T02:49:26.338Z,3.40
2023-04-08T02:51:32.312Z,3.60
2023-04-08T02:53:37.391Z,3.70
2023-04-08T02:55:42.627Z,3.50
2023-04-08T02:57:50.677Z,3.60
2023-04-08T02:59:55.683Z,3.50
2023-04-08T03:02:01.249Z,3.60
2023-04-08T03:04:06.442Z,3.40
2023-04-08T03:06:14.384Z,3.50
2023-04-08T03:08:19.403Z,3.60
2023-04-08T03:10:24.442Z,3.50
2023-04-08T03:12:30.122Z,3.60
2023-04-08T03:14:35.439Z,3.60
2023-04-08T03:16:40.500Z,3.60
2023-04-08T03:18:45.554Z,3.70
2023-04-08T03:20:50.735Z,3.80
2023-04-08T03:22:58.827Z,3.60
2023-04-08T03:25:04.499Z,3.40
2023-04-08T03:27:12.903Z,3.50
2023-04-08T03:29:17.954Z,3.40
2023-04-08T03:31:24.127Z,3.40
2023-04-08T03:33:29.549Z,3.30
2023-04-08T03:35:34.603Z,3.10
2023-04-08T03:37:40.319Z,3.00
2023-04-08T03:39:48.047Z,3.10
2023-04-08T03:41:53.139Z,3.30
2023-04-08T03:43:58.163Z,3.30
2023-04-08T03:46:03.203Z,3.30
2023-04-08T03:48:09.541Z,3.50
2023-04-08T03:50:15.199Z,3.50
2023-04-08T03:52:20.789Z,3.60
2023-04-08T03:54:25.830Z,3.70
2023-04-08T03:56:33.450Z,3.70
2023-04-08T03:58:38.571Z,3.60
2023-04-08T04:00:43.874Z,3.70
2023-04-08T04:02:49.388Z,3.80
2023-04-08T04:04:54.622Z,3.80
2023-04-08T04:07:00.510Z,3.60
2023-04-08T04:09:05.611Z,3.60
2023-04-08T04:11:11.071Z,3.70
2023-04-08T04:13:19.738Z,3.70
2023-04-08T04:15:24.896Z,3.80
2023-04-08T04:17:30.001Z,3.70
2023-04-08T04:19:36.590Z,3.70
2023-04-08T04:21:41.614Z,3.70
2023-04-08T04:23:46.689Z,3.70
2023-04-08T04:25:54.300Z,3.70
2023-04-08T04:27:59.308Z,3.40
2023-04-08T04:30:09.564Z,3.30
2023-04-08T04:32:15.048Z,3.50
2023-04-08T04:34:20.438Z,3.50
2023-04-08T04:36:25.740Z,3.50
2023-04-08T04:38:33.282Z,3.40
2023-04-08T04:40:40.547Z,3.50
2023-04-08T04:42:45.621Z,3.50
2023-04-08T04:44:50.628Z,3.60
2023-04-08T04:47:00.596Z,3.60
2023-04-08T04:49:05.630Z,3.60
2023-04-08T04:51:10.993Z,3.40
2023-04-08T04:53:16.058Z,3.30
2023-04-08T04:55:22.532Z,3.30
2023-04-08T04:57:30.331Z,3.30
2023-04-08T04:59:35.875Z,3.50
2023-04-08T05:01:41.543Z,3.60
2023-04-08T05:03:49.280Z,3.60
2023-04-08T05:05:57.690Z,3.70
2023-04-08T05:08:02.704Z,3.80
2023-04-08T05:10:11.130Z,3.80
2023-04-08T05:12:16.418Z,3.70
2023-04-08T05:14:21.441Z,3.80
2023-04-08T05:16:26.470Z,3.90
2023-04-08T05:18:33.725Z,3.80
2023-04-08T05:20:41.385Z,3.80
2023-04-08T05:22:46.668Z,3.90
2023-04-08T05:24:51.737Z,3.80
2023-04-08T05:26:59.129Z,3.80
2023-04-08T05:29:05.126Z,3.70
2023-04-08T05:31:12.083Z,3.60
2023-04-08T05:33:17.128Z,3.60
2023-04-08T05:35:22.343Z,3.50
2023-04-08T05:37:30.159Z,3.50
2023-04-08T05:39:35.181Z,3.30
2023-04-08T05:41:40.183Z,3.40
2023-04-08T05:43:45.264Z,3.30
2023-04-08T05:45:50.272Z,3.40
2023-04-08T05:47:55.369Z,3.60
2023-04-08T05:50:00.528Z,3.50
2023-04-08T05:52:07.049Z,3.40
2023-04-08T05:54:14.694Z,3.40
2023-04-08T05:56:19.799Z,3.50
2023-04-08T05:58:24.829Z,3.80
2023-04-08T06:00:30.033Z,3.80
2023-04-08T06:02:35.572Z,3.70
2023-04-08T06:04:40.896Z,3.90
2023-04-08T06:06:46.062Z,3.90
2023-04-08T06:08:52.090Z,3.90
2023-04-08T06:10:59.974Z,3.80
2023-04-08T06:13:05.030Z,4.00
2023-04-08T06:15:11.829Z,4.10
2023-04-08T06:17:16.930Z,4.10
2023-04-08T06:19:21.963Z,4.10
2023-04-08T06:21:26.956Z,4.10
2023-04-08T06:23:32.048Z,4.10
2023-04-08T06:25:37.069Z,4.10
2023-04-08T06:27:45.073Z,4.10
2023-04-08T06:29:49.989Z,4.10
2023-04-08T06:31:55.655Z,3.90
2023-04-08T06:34:00.679Z,4.00
2023-04-08T06:36:06.821Z,4.10
2023-04-08T06:38:11.918Z,4.10
2023-04-08T06:40:17.458Z,4.10
2023-04-08T06:42:23.194Z,4.20
2023-04-08T06:44:48.866Z,4.30
2023-04-08T06:46:54.252Z,4.30
2023-04-08T06:48:59.296Z,4.30
2023-04-08T06:51:04.742Z,4.30
2023-04-08T06:53:09.770Z,4.30
2023-04-08T06:55:15.540Z,4.30
2023-04-08T06:57:20.528Z,4.20
2023-04-08T06:59:27.211Z,4.30
2023-04-08T07:01:38.209Z,4.50
2023-04-08T07:03:43.436Z,4.50
2023-04-08T07:05:49.550Z,4.40
2023-04-08T07:07:54.548Z,4.50
2023-04-08T07:09:59.712Z,4.50
2023-04-08T07:12:05.274Z,4.70
2023-04-08T07:14:10.401Z,4.60
2023-04-08T07:16:15.804Z,4.50
2023-04-08T07:18:23.943Z,4.60
2023-04-08T07:20:31.626Z,4.70
2023-04-08T07:22:37.928Z,4.70
2023-04-08T07:24:43.558Z,4.70
2023-04-08T07:26:50.568Z,4.90
2023-04-08T07:28:55.772Z,4.90
2023-04-08T07:31:12.459Z,4.90
2023-04-08T07:33:17.578Z,5.00
2023-04-08T07:35:26.692Z,5.00
2023-04-08T07:37:32.469Z,5.10
2023-04-08T07:39:37.504Z,5.00
2023-04-08T07:41:42.999Z,5.20
2023-04-08T07:43:48.373Z,5.20
2023-04-08T07:45:57.368Z,5.20
2023-04-08T07:48:02.695Z,5.30
2023-04-08T07:50:09.782Z,5.40
2023-04-08T07:52:18.523Z,5.30
2023-04-08T07:54:24.649Z,5.40
2023-04-08T07:56:29.674Z,5.40
2023-04-08T07:58:35.377Z,5.50
2023-04-08T08:00:41.024Z,5.60
2023-04-08T08:02:46.491Z,5.50
2023-04-08T08:04:52.096Z,5.60
2023-04-08T08:06:57.627Z,5.60
2023-04-08T08:09:05.305Z,5.70
2023-04-08T08:11:10.640Z,5.70
2023-04-08T08:13:17.660Z,5.80
2023-04-08T08:15:22.707Z,5.90
2023-04-08T08:17:31.136Z,6.00
2023-04-08T08:19:38.409Z,6.00
2023-04-08T08:21:43.991Z,6.10
2023-04-08T08:23:49.135Z,5.90
2023-04-08T08:26:06.588Z,6.10
2023-04-08T08:28:11.634Z,6.10
2023-04-08T08:30:16.792Z,6.20
2023-04-08T08:32:22.193Z,6.20
2023-04-08T08:34:29.613Z,6.20
2023-04-08T08:36:35.036Z,6.20
2023-04-08T08:38:40.268Z,6.20
2023-04-08T08:40:45.413Z,6.30
2023-04-08T08:42:59.281Z,6.20
2023-04-08T08:45:07.184Z,6.30
2023-04-08T08:47:12.030Z,6.30
2023-04-08T08:49:17.543Z,6.40
2023-04-08T08:51:23.117Z,6.40
2023-04-08T08:53:35.906Z,6.50
2023-04-08T08:56:00.112Z,6.40
2023-04-08T08:58:10.268Z,6.30
2023-04-08T09:00:17.152Z,6.30
2023-04-08T09:02:35.077Z,6.20
2023-04-08T09:04:40.448Z,6.30
2023-04-08T09:06:46.904Z,6.30
2023-04-08T09:08:52.162Z,6.20
2023-04-08T09:10:57.628Z,6.30
2023-04-08T09:13:02.688Z,6.30
2023-04-08T09:15:12.914Z,6.30
2023-04-08T09:17:19.111Z,6.30
2023-04-08T09:19:24.236Z,6.30
2023-04-08T09:21:29.566Z,6.40
2023-04-08T09:23:42.963Z,6.50
2023-04-08T09:25:48.016Z,6.50
2023-04-08T09:27:53.108Z,6.50
2023-04-08T09:30:19.126Z,6.60
2023-04-08T09:32:24.313Z,6.60
2023-04-08T09:34:34.580Z,6.60
2023-04-08T09:36:39.726Z,6.60
2023-04-08T09:38:45.105Z,6.70
2023-04-08T09:40:51.354Z,6.80
2023-04-08T09:43:00.052Z,6.80
2023-04-08T09:45:09.724Z,6.90
2023-04-08T09:47:27.204Z,6.90
2023-04-08T09:49:39.508Z,7.00
2023-04-08T09:51:52.973Z,7.30
2023-04-08T09:54:04.457Z,7.40
2023-04-08T09:56:13.323Z,7.60
2023-04-08T09:58:23.691Z,7.70
2023-04-08T10:00:36.115Z,7.80
2023-04-08T10:02:59.385Z,7.80
2023-04-08T10:05:08.439Z,7.90
2023-04-08T10:07:19.373Z,7.80
2023-04-08T10:09:28.228Z,7.60
2023-04-08T10:11:33.845Z,7.60
2023-04-08T10:13:39.294Z,7.40
2023-04-08T10:15:47.680Z,7.50
2023-04-08T10:17:57.150Z,7.70
2023-04-08T10:20:02.191Z,8.00
2023-04-08T10:22:08.037Z,8.20
2023-04-08T10:24:14.290Z,8.30
2023-04-08T10:26:36.303Z,8.40
2023-04-08T10:28:41.379Z,8.30
2023-04-08T10:30:47.350Z,8.50
2023-04-08T10:32:56.632Z,8.40
2023-04-08T10:35:01.797Z,8.50
2023-04-08T10:37:10.868Z,8.50
2023-04-08T10:39:17.851Z,8.70
2023-04-08T10:41:27.630Z,8.70
2023-04-08T10:43:36.774Z,8.60
2023-04-08T10:45:43.367Z,8.70
2023-04-08T10:47:48.852Z,8.40
2023-04-08T10:49:56.790Z,8.60
2023-04-08T10:52:02.286Z,8.80
2023-04-08T10:54:11.308Z,8.90
2023-04-08T10:56:19.116Z,9.00
2023-04-08T10:58:24.321Z,9.20
2023-04-08T11:00:39.527Z,8.90
2023-04-08T11:02:45.012Z,9.20
2023-04-08T11:04:50.805Z,9.10
2023-04-08T11:07:01.614Z,9.20
2023-04-08T11:09:07.053Z,9.30
2023-04-08T11:11:12.560Z,9.40
2023-04-08T11:13:19.132Z,9.40
2023-04-08T11:15:25.262Z,9.40
2023-04-08T11:17:31.071Z,9.40
2023-04-08T11:19:39.420Z,9.30
2023-04-08T11:21:44.897Z,9.40
2023-04-08T11:23:54.100Z,9.30
2023-04-08T11:26:00.212Z,9.10
2023-04-08T11:28:05.968Z,9.10
2023-04-08T11:30:12.971Z,9.10
2023-04-08T11:32:19.133Z,9.20
2023-04-08T11:34:28.332Z,9.30
2023-04-08T11:36:35.421Z,9.20
2023-04-08T11:38:43.497Z,9.00
2023-04-08T11:40:59.016Z,9.00
2023-04-08T11:43:12.400Z,9.00
2023-04-08T11:45:19.830Z,9.00
2023-04-08T11:47:25.796Z,8.90
2023-04-08T11:49:31.258Z,8.80
2023-04-08T11:51:38.021Z,8.70
2023-04-08T11:53:48.101Z,8.70
2023-04-08T11:55:57.865Z,8.80
2023-04-08T11:58:07.746Z,8.90
2023-04-08T12:00:14.095Z,8.90
2023-04-08T12:02:19.509Z,8.80
2023-04-08T12:04:24.769Z,8.80
2023-04-08T12:06:30.155Z,8.80
2023-04-08T12:08:36.818Z,9.00
2023-04-08T12:10:41.888Z,9.00
2023-04-08T12:12:49.540Z,9.10
2023-04-08T12:14:54.826Z,9.10
2023-04-08T12:17:00.214Z,9.20
2023-04-08T12:19:05.229Z,9.30
2023-04-08T12:21:10.364Z,9.40
2023-04-08T12:23:15.756Z,9.30
2023-04-08T12:25:21.588Z,9.80
2023-04-08T12:27:26.620Z,10.20
2023-04-08T12:29:34.595Z,10.00
2023-04-08T12:31:39.689Z,10.30
2023-04-08T12:33:44.733Z,10.40
2023-04-08T12:35:52.027Z,10.90
2023-04-08T12:37:57.082Z,11.30
2023-04-08T12:40:02.236Z,11.50
2023-04-08T12:42:07.874Z,12.10
2023-04-08T12:44:13.464Z,12.60
2023-04-08T12:46:21.661Z,11.80
2023-04-08T12:48:29.328Z,11.70
2023-04-08T12:50:34.852Z,11.40
2023-04-08T12:52:39.925Z,11.50
2023-04-08T12:54:45.023Z,11.30
2023-04-08T12:56:50.214Z,11.80
2023-04-08T12:58:55.932Z,12.40
2023-04-08T13:01:00.997Z,12.20
2023-04-08T13:03:11.569Z,12.00
2023-04-08T13:05:19.742Z,12.10
2023-04-08T13:07:26.717Z,12.30
2023-04-08T13:09:32.249Z,12.30
2023-04-08T13:11:39.659Z,12.10
2023-04-08T13:13:46.512Z,12.10
2023-04-08T13:15:52.313Z,11.90
2023-04-08T13:17:57.438Z,12.00
2023-04-08T13:20:05.241Z,13.20
2023-04-08T13:22:10.274Z,13.50
2023-04-08T13:24:16.333Z,13.70
2023-04-08T13:26:21.570Z,13.00
2023-04-08T13:28:28.361Z,12.50
2023-04-08T13:30:33.836Z,12.00
2023-04-08T13:32:38.880Z,12.00
2023-04-08T13:34:43.906Z,12.20
2023-04-08T13:36:53.533Z,11.70
2023-04-08T13:38:58.707Z,11.90
2023-04-08T13:41:04.271Z,11.30
2023-04-08T13:43:09.825Z,11.30
2023-04-08T13:45:17.516Z,11.30
2023-04-08T13:47:23.039Z,11.30
2023-04-08T13:49:28.160Z,11.50
2023-04-08T13:51:33.175Z,11.00
2023-04-08T13:53:40.855Z,11.10
2023-04-08T13:55:45.882Z,11.20
2023-04-08T13:57:52.766Z,11.30
2023-04-08T13:59:58.089Z,11.30
2023-04-08T14:02:03.794Z,11.10
2023-04-08T14:04:09.197Z,10.90
2023-04-08T14:06:16.415Z,10.90
2023-04-08T14:08:25.827Z,11.20
2023-04-08T14:10:33.882Z,11.10
2023-04-08T14:12:38.898Z,11.20
2023-04-08T14:14:43.928Z,11.40
2023-04-08T14:16:49.723Z,11.60
2023-04-08T14:18:54.811Z,11.40
2023-04-08T14:21:00.332Z,11.20
2023-04-08T14:23:05.328Z,11.30
2023-04-08T14:25:15.676Z,11.40
2023-04-08T14:27:23.284Z,11.30
2023-04-08T14:29:28.205Z,11.10
2023-04-08T14:31:33.647Z,10.90
2023-04-08T14:33:40.858Z,10.70
2023-04-08T14:35:48.093Z,10.70
2023-04-08T14:37:53.221Z,10.80
2023-04-08T14:39:58.262Z,10.50
2023-04-08T14:42:03.445Z,10.50
2023-04-08T14:44:12.052Z,10.30
2023-04-08T14:46:19.722Z,10.30
2023-04-08T14:48:25.994Z,10.20
2023-04-08T14:50:31.869Z,10.30
2023-04-08T14:52:37.205Z,10.20
2023-04-08T14:54:43.012Z,10.30
2023-04-08T14:56:48.930Z,10.40
2023-04-08T14:58:54.003Z,10.20
2023-04-08T15:01:01.750Z,10.20
2023-04-08T15:03:07.271Z,10.40
2023-04-08T15:05:13.135Z,10.50
2023-04-08T15:07:18.571Z,10.40
2023-04-08T15:09:23.854Z,10.40
2023-04-08T15:11:31.004Z,10.30
2023-04-08T15:13:36.219Z,10.30
2023-04-08T15:15:41.498Z,10.20
2023-04-08T15:17:51.002Z,10.10
2023-04-08T15:19:58.766Z,10.10
2023-04-08T15:22:04.084Z,10.10
2023-04-08T15:24:09.368Z,10.20
2023-04-08T15:26:14.601Z,10.20
2023-04-08T15:31:27.428Z,10.20
2023-04-08T15:33:35.549Z,10.20
2023-04-08T15:35:41.418Z,10.10
2023-04-08T15:37:46.467Z,10.00
2023-04-08T15:39:51.514Z,10.10
2023-04-08T15:41:56.838Z,10.20
2023-04-08T15:44:02.910Z,10.10
2023-04-08T15:46:08.221Z,10.10
2023-04-08T15:48:14.613Z,10.10
2023-04-08T15:50:22.614Z,10.10
2023-04-08T15:52:29.348Z,10.10
2023-04-08T15:54:39.783Z,10.20
2023-04-08T15:56:47.339Z,10.30
2023-04-08T15:58:54.868Z,10.40
2023-04-08T16:01:00.510Z,10.40
2023-04-08T16:03:08.730Z,10.50
2023-04-08T16:05:13.953Z,10.50
2023-04-08T16:07:21.802Z,10.50
2023-04-08T16:09:27.323Z,10.50
2023-04-08T16:11:32.321Z,10.40
2023-04-08T16:13:39.416Z,10.50
2023-04-08T16:15:46.074Z,10.60
2023-04-08T16:17:54.379Z,10.50
2023-04-08T16:20:00.750Z,10.50
2023-04-08T16:22:06.013Z,10.40
2023-04-08T16:24:14.403Z,10.30
2023-04-08T16:26:21.956Z,10.30
2023-04-08T16:28:27.697Z,10.20
2023-04-08T16:30:32.738Z,10.20
2023-04-08T16:32:37.799Z,10.20
2023-04-08T16:34:42.812Z,10.20
2023-04-08T16:36:48.246Z,10.10
2023-04-08T16:38:53.848Z,10.00
2023-04-08T16:41:04.629Z,10.00
2023-04-08T16:43:09.636Z,10.00
2023-04-08T16:45:15.886Z,9.90
2023-04-08T16:47:20.971Z,9.90
2023-04-08T16:49:26.080Z,9.80
2023-04-08T16:51:33.521Z,9.80
2023-04-08T16:53:38.670Z,9.80
2023-04-08T16:55:46.077Z,9.70
2023-04-08T16:57:53.687Z,9.80
2023-04-08T16:59:58.755Z,9.70
2023-04-08T17:02:03.842Z,9.60
2023-04-08T17:04:08.965Z,9.70
2023-04-08T17:06:17.381Z,9.70
2023-04-08T17:08:23.908Z,9.70
2023-04-08T17:10:29.026Z,9.60
2023-04-08T17:12:34.134Z,9.40
2023-04-08T17:14:41.726Z,9.40
2023-04-08T17:16:49.086Z,9.30
2023-04-08T17:18:54.299Z,9.30
2023-04-08T17:20:59.449Z,9.40
2023-04-08T17:23:04.762Z,9.30
2023-04-08T17:25:11.702Z,9.30
2023-04-08T17:27:18.852Z,9.10
2023-04-08T17:29:23.847Z,9.20
2023-04-08T17:31:31.567Z,9.20
2023-04-08T17:33:36.820Z,9.20
2023-04-08T17:35:44.965Z,9.20
2023-04-08T17:37:50.394Z,9.20
2023-04-08T17:39:57.134Z,9.20
2023-04-08T17:42:04.301Z,9.20
2023-04-08T17:44:09.367Z,9.20
2023-04-08T17:46:14.707Z,9.10
2023-04-08T17:48:23.554Z,9.10
2023-04-08T17:50:28.858Z,9.10
2023-04-08T17:52:34.084Z,9.10
2023-04-08T17:54:39.169Z,9.10
2023-04-08T17:56:45.158Z,9.00
2023-04-08T17:58:51.057Z,9.00
2023-04-08T18:00:56.326Z,9.00
2023-04-08T18:03:01.479Z,9.00
2023-04-08T18:05:09.839Z,9.00
2023-04-08T18:07:14.835Z,9.00
2023-04-08T18:09:21.052Z,9.00
2023-04-08T18:11:27.224Z,9.00
2023-04-08T18:13:32.206Z,8.90
2023-04-08T18:15:38.846Z,8.90
2023-04-08T18:17:44.073Z,8.80
2023-04-08T18:19:49.060Z,8.80
2023-04-08T18:21:56.683Z,8.80
2023-04-08T18:24:02.130Z,8.70
2023-04-08T18:26:07.407Z,8.70
2023-04-08T18:28:12.474Z,8.60
2023-04-08T18:30:17.634Z,8.50
2023-04-08T18:32:22.849Z,8.40
2023-04-08T18:34:27.964Z,8.50
2023-04-08T18:36:33.235Z,8.30
2023-04-08T18:38:41.977Z,8.20
2023-04-08T18:40:48.394Z,8.30
2023-04-08T18:42:53.512Z,8.20
2023-04-08T18:44:58.728Z,8.30
2023-04-08T18:47:03.811Z,8.30
2023-04-08T18:49:08.860Z,8.20
2023-04-08T18:51:14.321Z,8.20
2023-04-08T18:53:19.453Z,8.10
2023-04-08T18:55:27.146Z,8.20
2023-04-08T18:57:32.441Z,8.20
2023-04-08T18:59:40.439Z,8.20
2023-04-08T19:01:45.739Z,8.30
2023-04-08T19:03:51.053Z,8.40
2023-04-08T19:05:56.481Z,8.30
2023-04-08T19:08:02.026Z,8.30
2023-04-08T19:10:08.432Z,8.30
2023-04-08T19:12:16.243Z,8.30
2023-04-08T19:14:21.274Z,8.30
2023-04-08T19:16:26.542Z,8.30
2023-04-08T19:18:31.702Z,8.00
2023-04-08T19:20:36.777Z,7.90
2023-04-08T19:22:41.875Z,8.00
2023-04-08T19:24:46.884Z,7.80
2023-04-08T19:26:53.260Z,7.80
2023-04-08T19:29:01.271Z,7.70
2023-04-08T19:31:06.747Z,7.80
2023-04-08T19:33:11.811Z,7.90
2023-04-08T19:35:16.965Z,7.70
2023-04-08T19:37:21.964Z,7.80
2023-04-08T19:39:28.633Z,8.00
2023-04-08T19:41:34.003Z,7.90
2023-04-08T19:43:39.109Z,8.00
2023-04-08T19:45:47.391Z,8.00
2023-04-08T19:47:52.729Z,8.00
2023-04-08T19:49:58.425Z,8.00
2023-04-08T19:52:03.484Z,8.00
2023-04-08T19:54:08.519Z,8.00
2023-04-08T19:56:13.889Z,8.00
2023-04-08T19:58:18.971Z,8.00
2023-04-08T20:00:26.165Z,7.90
2023-04-08T20:02:33.955Z,7.90
2023-04-08T20:04:39.006Z,8.00
2023-04-08T20:06:44.192Z,8.00
2023-04-08T20:08:50.532Z,7.90
2023-04-08T20:10:55.757Z,7.90
2023-04-08T20:13:00.895Z,7.90
2023-04-08T20:15:09.340Z,8.00
2023-04-08T20:17:20.977Z,7.90
2023-04-08T20:19:29.037Z,7.80
2023-04-08T20:21:34.150Z,7.80
2023-04-08T20:23:44.143Z,7.70
2023-04-08T20:25:49.219Z,7.50
2023-04-08T20:27:56.501Z,7.50
2023-04-08T20:30:01.543Z,7.70
2023-04-08T20:32:07.485Z,7.80
2023-04-08T20:34:12.982Z,7.80
2023-04-08T20:36:20.858Z,7.80
2023-04-08T20:38:26.443Z,7.70
2023-04-08T20:40:32.899Z,7.50
2023-04-08T20:42:38.712Z,7.50
2023-04-08T20:44:43.734Z,7.70
2023-04-08T20:46:49.865Z,7.70
2023-04-08T20:48:54.985Z,7.70
2023-04-08T20:51:00.351Z,7.80
2023-04-08T20:53:10.354Z,7.80
2023-04-08T20:55:16.841Z,7.70
2023-04-08T20:57:21.921Z,7.70
2023-04-08T20:59:28.378Z,7.80
2023-04-08T21:01:33.659Z,7.80
2023-04-08T21:03:38.943Z,7.80
2023-04-08T21:05:44.139Z,7.80
2023-04-08T21:07:49.270Z,7.80
2023-04-08T21:09:57.201Z,7.80
2023-04-08T21:12:02.184Z,7.70
2023-04-08T21:14:07.219Z,7.70
2023-04-08T21:16:12.554Z,7.60
2023-04-08T21:18:17.598Z,7.70
2023-04-08T21:20:22.722Z,7.70
2023-04-08T21:22:28.920Z,7.70
2023-04-08T21:24:33.943Z,7.70
2023-04-08T21:26:41.620Z,7.70
2023-04-08T21:28:46.836Z,7.60
2023-04-08T21:30:52.402Z,7.70
2023-04-08T21:32:57.564Z,7.60
2023-04-08T21:35:02.738Z,7.60
2023-04-08T21:37:07.909Z,7.60
2023-04-08T21:39:13.048Z,7.60
2023-04-08T21:41:18.309Z,7.60
2023-04-08T21:43:27.408Z,7.60
2023-04-08T21:45:32.475Z,7.50
2023-04-08T21:47:40.134Z,7.40
2023-04-08T21:49:45.484Z,7.50
2023-04-08T21:51:52.945Z,7.50
2023-04-08T21:53:58.315Z,7.60
2023-04-08T21:56:03.488Z,7.60
2023-04-08T21:58:12.497Z,7.50
2023-04-08T22:00:20.298Z,7.40
2023-04-08T22:02:25.559Z,7.30
2023-04-08T22:04:31.036Z,7.20
2023-04-08T22:06:38.480Z,7.10
2023-04-08T22:08:43.568Z,7.20
2023-04-08T22:10:48.741Z,7.40
2023-04-08T22:12:53.911Z,7.40
2023-04-08T22:14:59.079Z,7.50
2023-04-08T22:17:07.221Z,7.50
2023-04-08T22:19:12.286Z,7.50
2023-04-08T22:21:17.481Z,7.50
2023-04-08T22:23:22.622Z,7.60
2023-04-08T22:25:28.166Z,7.60
2023-04-08T22:27:33.294Z,7.60
2023-04-08T22:29:38.665Z,7.60
2023-04-08T22:31:43.987Z,7.60
2023-04-08T22:33:51.610Z,7.50
2023-04-08T22:35:56.690Z,7.50
2023-04-08T22:38:01.752Z,7.50
2023-04-08T22:40:08.326Z,7.40
2023-04-08T22:42:13.398Z,7.40
2023-04-08T22:44:18.697Z,7.40
2023-04-08T22:46:23.759Z,7.30
2023-04-08T22:48:28.837Z,7.40
2023-04-08T22:50:36.730Z,7.40
2023-04-08T22:52:42.126Z,7.30
2023-04-08T22:54:47.215Z,7.40
2023-04-08T22:56:56.976Z,7.40
2023-04-08T22:59:02.041Z,7.40
2023-04-08T23:01:14.515Z,7.40
2023-04-08T23:03:19.647Z,7.40
2023-04-08T23:05:25.085Z,7.30
2023-04-08T23:07:32.760Z,7.30
2023-04-08T23:09:37.806Z,7.30
2023-04-08T23:11:43.137Z,7.20
2023-04-08T23:13:48.165Z,7.30
2023-04-08T23:15:53.242Z,7.20
2023-04-08T23:17:58.313Z,7.20
2023-04-08T23:20:05.973Z,7.20
2023-04-08T23:22:11.099Z,7.30
2023-04-08T23:24:20.489Z,7.30
2023-04-08T23:26:25.770Z,7.30
2023-04-08T23:28:30.815Z,7.30
2023-04-08T23:30:35.911Z,7.30
2023-04-08T23:32:41.076Z,7.30
2023-04-08T23:34:46.071Z,7.30
2023-04-08T23:36:51.213Z,7.40
2023-04-08T23:38:56.277Z,7.30
2023-04-08T23:41:03.912Z,7.30
2023-04-08T23:43:08.904Z,7.40
2023-04-08T23:45:14.292Z,7.30
2023-04-08T23:47:19.321Z,7.30
2023-04-08T23:49:24.366Z,7.30
2023-04-08T23:51:29.506Z,7.10
2023-04-08T23:53:34.544Z,7.20
2023-04-08T23:55:41.877Z,7.20
2023-04-08T23:57:50.936Z,7.20
2023-04-08T23:59:56.024Z,7.20
